sensor_id;sensor_type;location;lat;lon;timestamp;temperature;humidity
27413;DHT22;14871;52.702;5.230;2023-09-18T00:01:39;21.20;99.90
27413;DHT22;14871;52.702;5.230;2023-09-18T00:04:05;21.20;99.90
27413;DHT22;14871;52.702;5.230;2023-09-18T00:06:32;21.10;99.90
27413;DHT22;14871;52.702;5.230;2023-09-18T00:08:58;21.20;99.90
27413;DHT22;14871;52.702;5.230;2023-09-18T00:11:24;21.20;99.90
27413;DHT22;14871;52.702;5.230;2023-09-18T00:13:50;21.10;99.90
27413;DHT22;14871;52.702;5.230;2023-09-18T00:16:16;21.20;99.90
27413;DHT22;14871;52.702;5.230;2023-09-18T00:18:42;21.20;99.90
27413;DHT22;14871;52.702;5.230;2023-09-18T00:21:10;21.20;99.90
27413;DHT22;14871;52.702;5.230;2023-09-18T00:23:36;21.20;99.90
27413;DHT22;14871;52.702;5.230;2023-09-18T00:26:03;21.20;99.90
27413;DHT22;14871;52.702;5.230;2023-09-18T00:28:29;21.10;99.90
27413;DHT22;14871;52.702;5.230;2023-09-18T00:30:54;21.10;99.90
27413;DHT22;14871;52.702;5.230;2023-09-18T00:33:20;21.10;99.90
27413;DHT22;14871;52.702;5.230;2023-09-18T00:35:47;21.10;99.90
27413;DHT22;14871;52.702;5.230;2023-09-18T00:38:13;21.10;99.90
27413;DHT22;14871;52.702;5.230;2023-09-18T00:40:38;21.10;99.90
27413;DHT22;14871;52.702;5.230;2023-09-18T00:43:04;21.10;99.90
27413;DHT22;14871;52.702;5.230;2023-09-18T00:45:30;21.00;99.90
27413;DHT22;14871;52.702;5.230;2023-09-18T00:47:55;21.10;99.90
27413;DHT22;14871;52.702;5.230;2023-09-18T00:50:21;21.10;99.90
27413;DHT22;14871;52.702;5.230;2023-09-18T00:52:47;21.10;99.90
27413;DHT22;14871;52.702;5.230;2023-09-18T00:55:14;21.10;99.90
27413;DHT22;14871;52.702;5.230;2023-09-18T00:57:41;21.10;99.90
27413;DHT22;14871;52.702;5.230;2023-09-18T01:00:07;21.10;99.90
27413;DHT22;14871;52.702;5.230;2023-09-18T01:02:33;21.10;99.90
27413;DHT22;14871;52.702;5.230;2023-09-18T01:04:58;21.10;99.90
27413;DHT22;14871;52.702;5.230;2023-09-18T01:07:24;21.10;99.90
27413;DHT22;14871;52.702;5.230;2023-09-18T01:09:49;21.10;99.90
27413;DHT22;14871;52.702;5.230;2023-09-18T01:12:26;21.10;99.90
27413;DHT22;14871;52.702;5.230;2023-09-18T01:15:06;21.10;99.90
27413;DHT22;14871;52.702;5.230;2023-09-18T01:17:35;21.10;99.90
27413;DHT22;14871;52.702;5.230;2023-09-18T01:20:04;21.10;99.90
27413;DHT22;14871;52.702;5.230;2023-09-18T01:22:31;21.10;99.90
27413;DHT22;14871;52.702;5.230;2023-09-18T01:24:57;21.10;99.90
27413;DHT22;14871;52.702;5.230;2023-09-18T01:27:23;21.10;99.90
27413;DHT22;14871;52.702;5.230;2023-09-18T01:29:49;21.10;99.90
27413;DHT22;14871;52.702;5.230;2023-09-18T01:32:15;21.20;99.90
27413;DHT22;14871;52.702;5.230;2023-09-18T01:34:51;21.20;99.90
27413;DHT22;14871;52.702;5.230;2023-09-18T01:37:21;21.10;99.90
27413;DHT22;14871;52.702;5.230;2023-09-18T01:39:49;21.10;99.90
27413;DHT22;14871;52.702;5.230;2023-09-18T01:42:16;21.10;99.90
27413;DHT22;14871;52.702;5.230;2023-09-18T01:44:42;21.10;99.90
27413;DHT22;14871;52.702;5.230;2023-09-18T01:47:12;21.10;99.90
27413;DHT22;14871;52.702;5.230;2023-09-18T01:49:39;21.20;99.90
27413;DHT22;14871;52.702;5.230;2023-09-18T01:52:07;21.20;99.90
27413;DHT22;14871;52.702;5.230;2023-09-18T01:54:34;21.20;99.90
27413;DHT22;14871;52.702;5.230;2023-09-18T01:57:00;21.20;99.90
27413;DHT22;14871;52.702;5.230;2023-09-18T01:59:26;21.20;99.90
27413;DHT22;14871;52.702;5.230;2023-09-18T02:01:53;21.20;99.90
27413;DHT22;14871;52.702;5.230;2023-09-18T02:04:22;21.20;99.90
27413;DHT22;14871;52.702;5.230;2023-09-18T02:06:49;21.30;99.90
27413;DHT22;14871;52.702;5.230;2023-09-18T02:09:16;21.30;99.90
27413;DHT22;14871;52.702;5.230;2023-09-18T02:11:43;21.30;99.90
27413;DHT22;14871;52.702;5.230;2023-09-18T02:14:10;21.30;99.90
27413;DHT22;14871;52.702;5.230;2023-09-18T02:16:37;21.30;99.90
27413;DHT22;14871;52.702;5.230;2023-09-18T02:19:03;21.20;99.90
27413;DHT22;14871;52.702;5.230;2023-09-18T02:21:30;21.10;99.90
27413;DHT22;14871;52.702;5.230;2023-09-18T02:23:55;21.30;99.90
27413;DHT22;14871;52.702;5.230;2023-09-18T02:26:22;21.30;99.90
27413;DHT22;14871;52.702;5.230;2023-09-18T02:28:48;21.30;99.90
27413;DHT22;14871;52.702;5.230;2023-09-18T02:31:14;21.30;99.90
27413;DHT22;14871;52.702;5.230;2023-09-18T02:33:41;21.30;99.90
27413;DHT22;14871;52.702;5.230;2023-09-18T02:36:07;21.40;99.90
27413;DHT22;14871;52.702;5.230;2023-09-18T02:38:33;21.40;99.90
27413;DHT22;14871;52.702;5.230;2023-09-18T02:41:00;21.40;99.90
27413;DHT22;14871;52.702;5.230;2023-09-18T02:43:26;21.50;99.90
27413;DHT22;14871;52.702;5.230;2023-09-18T02:45:52;21.40;99.90
27413;DHT22;14871;52.702;5.230;2023-09-18T02:48:18;21.40;99.90
27413;DHT22;14871;52.702;5.230;2023-09-18T02:50:44;21.40;99.90
27413;DHT22;14871;52.702;5.230;2023-09-18T02:53:20;21.40;99.90
27413;DHT22;14871;52.702;5.230;2023-09-18T02:55:50;21.50;99.90
27413;DHT22;14871;52.702;5.230;2023-09-18T02:58:16;21.50;99.90
27413;DHT22;14871;52.702;5.230;2023-09-18T03:00:42;21.40;99.90
27413;DHT22;14871;52.702;5.230;2023-09-18T03:03:11;21.40;99.90
27413;DHT22;14871;52.702;5.230;2023-09-18T03:05:38;21.40;99.90
27413;DHT22;14871;52.702;5.230;2023-09-18T03:08:04;21.40;99.90
27413;DHT22;14871;52.702;5.230;2023-09-18T03:10:37;21.40;99.90
27413;DHT22;14871;52.702;5.230;2023-09-18T03:13:05;21.50;99.90
27413;DHT22;14871;52.702;5.230;2023-09-18T03:15:31;21.30;99.90
27413;DHT22;14871;52.702;5.230;2023-09-18T03:17:58;21.40;99.90
27413;DHT22;14871;52.702;5.230;2023-09-18T03:20:25;21.40;99.90
27413;DHT22;14871;52.702;5.230;2023-09-18T03:22:52;21.40;99.90
27413;DHT22;14871;52.702;5.230;2023-09-18T03:25:18;21.50;99.90
27413;DHT22;14871;52.702;5.230;2023-09-18T03:27:43;21.50;99.90
27413;DHT22;14871;52.702;5.230;2023-09-18T03:30:09;21.40;99.90
27413;DHT22;14871;52.702;5.230;2023-09-18T03:32:38;21.40;99.90
27413;DHT22;14871;52.702;5.230;2023-09-18T03:35:04;21.40;99.90
27413;DHT22;14871;52.702;5.230;2023-09-18T03:37:30;21.30;99.90
27413;DHT22;14871;52.702;5.230;2023-09-18T03:39:55;21.40;99.90
27413;DHT22;14871;52.702;5.230;2023-09-18T03:42:21;21.20;99.90
27413;DHT22;14871;52.702;5.230;2023-09-18T03:44:46;21.20;99.90
27413;DHT22;14871;52.702;5.230;2023-09-18T03:47:12;21.30;99.90
27413;DHT22;14871;52.702;5.230;2023-09-18T03:49:38;21.20;99.90
27413;DHT22;14871;52.702;5.230;2023-09-18T03:52:03;21.00;99.90
27413;DHT22;14871;52.702;5.230;2023-09-18T03:54:29;21.20;99.90
27413;DHT22;14871;52.702;5.230;2023-09-18T03:56:54;21.20;99.90
27413;DHT22;14871;52.702;5.230;2023-09-18T03:59:20;21.20;99.90
27413;DHT22;14871;52.702;5.230;2023-09-18T04:01:46;21.30;99.90
27413;DHT22;14871;52.702;5.230;2023-09-18T04:04:11;21.10;99.90
27413;DHT22;14871;52.702;5.230;2023-09-18T04:06:41;21.10;99.90
27413;DHT22;14871;52.702;5.230;2023-09-18T04:09:07;21.30;99.90
27413;DHT22;14871;52.702;5.230;2023-09-18T04:11:33;21.20;99.90
27413;DHT22;14871;52.702;5.230;2023-09-18T04:14:00;21.20;99.90
27413;DHT22;14871;52.702;5.230;2023-09-18T04:16:26;21.10;99.90
27413;DHT22;14871;52.702;5.230;2023-09-18T04:18:53;21.10;99.90
27413;DHT22;14871;52.702;5.230;2023-09-18T04:21:19;21.10;99.90
27413;DHT22;14871;52.702;5.230;2023-09-18T04:23:47;21.20;99.90
27413;DHT22;14871;52.702;5.230;2023-09-18T04:26:12;21.20;99.90
27413;DHT22;14871;52.702;5.230;2023-09-18T04:28:41;21.10;99.90
27413;DHT22;14871;52.702;5.230;2023-09-18T04:31:07;21.20;99.90
27413;DHT22;14871;52.702;5.230;2023-09-18T04:33:33;21.10;99.90
27413;DHT22;14871;52.702;5.230;2023-09-18T04:35:58;21.00;99.90
27413;DHT22;14871;52.702;5.230;2023-09-18T04:38:24;21.00;99.90
27413;DHT22;14871;52.702;5.230;2023-09-18T04:40:57;21.10;99.90
27413;DHT22;14871;52.702;5.230;2023-09-18T04:43:23;21.30;99.90
27413;DHT22;14871;52.702;5.230;2023-09-18T04:45:50;21.40;99.90
27413;DHT22;14871;52.702;5.230;2023-09-18T04:48:16;21.40;99.90
27413;DHT22;14871;52.702;5.230;2023-09-18T04:50:42;21.50;99.90
27413;DHT22;14871;52.702;5.230;2023-09-18T04:53:08;21.40;99.90
27413;DHT22;14871;52.702;5.230;2023-09-18T04:55:34;21.50;99.90
27413;DHT22;14871;52.702;5.230;2023-09-18T04:58:00;21.50;99.90
27413;DHT22;14871;52.702;5.230;2023-09-18T05:00:26;21.40;99.90
27413;DHT22;14871;52.702;5.230;2023-09-18T05:02:52;21.40;99.90
27413;DHT22;14871;52.702;5.230;2023-09-18T05:05:18;21.50;99.90
27413;DHT22;14871;52.702;5.230;2023-09-18T05:07:44;21.60;99.90
27413;DHT22;14871;52.702;5.230;2023-09-18T05:10:10;21.40;99.90
27413;DHT22;14871;52.702;5.230;2023-09-18T05:12:38;21.60;99.90
27413;DHT22;14871;52.702;5.230;2023-09-18T05:15:05;21.60;99.90
27413;DHT22;14871;52.702;5.230;2023-09-18T05:17:59;21.30;99.90
27413;DHT22;14871;52.702;5.230;2023-09-18T05:20:28;21.30;99.90
27413;DHT22;14871;52.702;5.230;2023-09-18T05:22:56;20.80;99.90
27413;DHT22;14871;52.702;5.230;2023-09-18T05:25:22;20.40;99.90
27413;DHT22;14871;52.702;5.230;2023-09-18T05:27:49;20.40;99.90
27413;DHT22;14871;52.702;5.230;2023-09-18T05:30:31;20.20;99.90
27413;DHT22;14871;52.702;5.230;2023-09-18T05:33:00;20.00;99.90
27413;DHT22;14871;52.702;5.230;2023-09-18T05:35:40;19.90;99.90
27413;DHT22;14871;52.702;5.230;2023-09-18T05:38:06;19.80;99.90
27413;DHT22;14871;52.702;5.230;2023-09-18T05:40:32;19.90;99.90
27413;DHT22;14871;52.702;5.230;2023-09-18T05:42:58;19.90;99.90
27413;DHT22;14871;52.702;5.230;2023-09-18T05:45:24;19.90;99.90
27413;DHT22;14871;52.702;5.230;2023-09-18T05:47:51;19.90;99.90
27413;DHT22;14871;52.702;5.230;2023-09-18T05:50:18;20.10;99.90
27413;DHT22;14871;52.702;5.230;2023-09-18T05:52:45;20.00;99.90
27413;DHT22;14871;52.702;5.230;2023-09-18T05:55:11;20.00;99.90
27413;DHT22;14871;52.702;5.230;2023-09-18T05:57:38;19.90;99.90
27413;DHT22;14871;52.702;5.230;2023-09-18T06:00:04;20.00;99.90
27413;DHT22;14871;52.702;5.230;2023-09-18T06:02:30;20.00;99.90
27413;DHT22;14871;52.702;5.230;2023-09-18T06:04:57;20.20;99.90
27413;DHT22;14871;52.702;5.230;2023-09-18T06:07:24;20.10;99.90
27413;DHT22;14871;52.702;5.230;2023-09-18T06:09:50;20.10;99.90
27413;DHT22;14871;52.702;5.230;2023-09-18T06:12:15;20.20;99.90
27413;DHT22;14871;52.702;5.230;2023-09-18T06:14:41;20.20;99.90
27413;DHT22;14871;52.702;5.230;2023-09-18T06:17:07;20.20;99.90
27413;DHT22;14871;52.702;5.230;2023-09-18T06:19:34;20.20;99.90
27413;DHT22;14871;52.702;5.230;2023-09-18T06:22:00;20.20;99.90
27413;DHT22;14871;52.702;5.230;2023-09-18T06:24:26;20.30;99.90
27413;DHT22;14871;52.702;5.230;2023-09-18T06:26:52;20.30;99.90
27413;DHT22;14871;52.702;5.230;2023-09-18T06:29:18;20.30;99.90
27413;DHT22;14871;52.702;5.230;2023-09-18T06:31:44;20.30;99.90
27413;DHT22;14871;52.702;5.230;2023-09-18T06:34:09;20.30;99.90
27413;DHT22;14871;52.702;5.230;2023-09-18T06:36:35;20.30;99.90
27413;DHT22;14871;52.702;5.230;2023-09-18T06:39:01;20.30;99.90
27413;DHT22;14871;52.702;5.230;2023-09-18T06:41:26;20.30;99.90
27413;DHT22;14871;52.702;5.230;2023-09-18T06:43:52;20.40;99.90
27413;DHT22;14871;52.702;5.230;2023-09-18T06:46:18;20.40;99.90
27413;DHT22;14871;52.702;5.230;2023-09-18T06:48:43;20.40;99.90
27413;DHT22;14871;52.702;5.230;2023-09-18T06:51:11;20.50;99.90
27413;DHT22;14871;52.702;5.230;2023-09-18T06:53:36;20.60;99.90
27413;DHT22;14871;52.702;5.230;2023-09-18T06:56:02;20.60;99.90
27413;DHT22;14871;52.702;5.230;2023-09-18T06:58:28;20.60;99.90
27413;DHT22;14871;52.702;5.230;2023-09-18T07:00:53;20.70;99.90
27413;DHT22;14871;52.702;5.230;2023-09-18T07:03:19;20.50;99.90
27413;DHT22;14871;52.702;5.230;2023-09-18T07:05:44;20.70;99.90
27413;DHT22;14871;52.702;5.230;2023-09-18T07:08:11;20.70;99.90
27413;DHT22;14871;52.702;5.230;2023-09-18T07:10:39;20.70;99.90
27413;DHT22;14871;52.702;5.230;2023-09-18T07:13:05;20.80;99.90
27413;DHT22;14871;52.702;5.230;2023-09-18T07:15:31;20.80;99.90
27413;DHT22;14871;52.702;5.230;2023-09-18T07:17:56;20.70;99.90
27413;DHT22;14871;52.702;5.230;2023-09-18T07:20:22;20.70;99.90
27413;DHT22;14871;52.702;5.230;2023-09-18T07:22:49;20.70;99.90
27413;DHT22;14871;52.702;5.230;2023-09-18T07:25:16;20.80;99.90
27413;DHT22;14871;52.702;5.230;2023-09-18T07:27:42;20.70;99.90
27413;DHT22;14871;52.702;5.230;2023-09-18T07:30:12;20.70;99.90
27413;DHT22;14871;52.702;5.230;2023-09-18T07:32:39;20.70;99.90
27413;DHT22;14871;52.702;5.230;2023-09-18T07:35:09;20.70;99.90
27413;DHT22;14871;52.702;5.230;2023-09-18T07:37:36;20.70;99.90
27413;DHT22;14871;52.702;5.230;2023-09-18T07:40:03;20.60;99.90
27413;DHT22;14871;52.702;5.230;2023-09-18T07:42:29;20.60;99.90
27413;DHT22;14871;52.702;5.230;2023-09-18T07:44:55;20.70;99.90
27413;DHT22;14871;52.702;5.230;2023-09-18T07:47:20;20.70;99.90
27413;DHT22;14871;52.702;5.230;2023-09-18T07:49:47;20.90;99.90
27413;DHT22;14871;52.702;5.230;2023-09-18T07:52:14;20.90;99.90
27413;DHT22;14871;52.702;5.230;2023-09-18T07:54:40;21.00;99.90
27413;DHT22;14871;52.702;5.230;2023-09-18T07:57:05;20.80;99.90
27413;DHT22;14871;52.702;5.230;2023-09-18T07:59:35;20.80;99.90
27413;DHT22;14871;52.702;5.230;2023-09-18T08:02:00;21.00;99.90
27413;DHT22;14871;52.702;5.230;2023-09-18T08:04:26;21.00;99.90
27413;DHT22;14871;52.702;5.230;2023-09-18T08:06:51;21.00;99.90
27413;DHT22;14871;52.702;5.230;2023-09-18T08:09:17;21.10;99.90
27413;DHT22;14871;52.702;5.230;2023-09-18T08:11:43;21.30;99.90
27413;DHT22;14871;52.702;5.230;2023-09-18T08:14:09;21.50;99.90
27413;DHT22;14871;52.702;5.230;2023-09-18T08:16:37;21.20;99.90
27413;DHT22;14871;52.702;5.230;2023-09-18T08:19:03;21.40;99.90
27413;DHT22;14871;52.702;5.230;2023-09-18T08:21:29;21.50;99.90
27413;DHT22;14871;52.702;5.230;2023-09-18T08:23:55;21.40;99.90
27413;DHT22;14871;52.702;5.230;2023-09-18T08:26:21;21.70;99.90
27413;DHT22;14871;52.702;5.230;2023-09-18T08:28:47;21.60;99.90
27413;DHT22;14871;52.702;5.230;2023-09-18T08:31:13;21.70;99.90
27413;DHT22;14871;52.702;5.230;2023-09-18T08:33:39;21.60;99.90
27413;DHT22;14871;52.702;5.230;2023-09-18T08:36:05;21.80;99.90
27413;DHT22;14871;52.702;5.230;2023-09-18T08:38:31;21.70;99.90
27413;DHT22;14871;52.702;5.230;2023-09-18T08:40:57;22.00;99.90
27413;DHT22;14871;52.702;5.230;2023-09-18T08:43:24;22.00;99.90
27413;DHT22;14871;52.702;5.230;2023-09-18T08:45:54;21.90;99.90
27413;DHT22;14871;52.702;5.230;2023-09-18T08:48:21;21.80;99.90
27413;DHT22;14871;52.702;5.230;2023-09-18T08:50:48;22.20;99.90
27413;DHT22;14871;52.702;5.230;2023-09-18T08:53:14;22.00;99.90
27413;DHT22;14871;52.702;5.230;2023-09-18T08:55:40;22.00;99.90
27413;DHT22;14871;52.702;5.230;2023-09-18T08:58:07;22.20;99.90
27413;DHT22;14871;52.702;5.230;2023-09-18T09:00:33;22.60;99.90
27413;DHT22;14871;52.702;5.230;2023-09-18T09:03:01;22.80;99.90
27413;DHT22;14871;52.702;5.230;2023-09-18T09:05:26;22.50;99.90
27413;DHT22;14871;52.702;5.230;2023-09-18T09:07:52;22.90;99.90
27413;DHT22;14871;52.702;5.230;2023-09-18T09:10:18;23.30;99.90
27413;DHT22;14871;52.702;5.230;2023-09-18T09:12:53;23.20;99.90
27413;DHT22;14871;52.702;5.230;2023-09-18T09:15:19;23.20;99.90
27413;DHT22;14871;52.702;5.230;2023-09-18T09:17:46;23.20;99.90
27413;DHT22;14871;52.702;5.230;2023-09-18T09:20:13;23.20;99.90
27413;DHT22;14871;52.702;5.230;2023-09-18T09:22:41;23.40;99.90
27413;DHT22;14871;52.702;5.230;2023-09-18T09:25:27;23.30;99.90
27413;DHT22;14871;52.702;5.230;2023-09-18T09:27:54;23.30;99.90
27413;DHT22;14871;52.702;5.230;2023-09-18T09:30:25;23.30;99.90
27413;DHT22;14871;52.702;5.230;2023-09-18T09:32:54;23.30;99.90
27413;DHT22;14871;52.702;5.230;2023-09-18T09:35:24;23.00;99.90
27413;DHT22;14871;52.702;5.230;2023-09-18T09:37:53;23.20;99.90
27413;DHT22;14871;52.702;5.230;2023-09-18T09:40:21;23.20;99.90
27413;DHT22;14871;52.702;5.230;2023-09-18T09:42:47;23.20;99.90
27413;DHT22;14871;52.702;5.230;2023-09-18T09:45:15;23.10;99.90
27413;DHT22;14871;52.702;5.230;2023-09-18T09:47:44;23.00;99.90
27413;DHT22;14871;52.702;5.230;2023-09-18T09:50:11;22.90;99.90
27413;DHT22;14871;52.702;5.230;2023-09-18T09:52:47;22.80;99.90
27413;DHT22;14871;52.702;5.230;2023-09-18T09:55:33;22.70;99.90
27413;DHT22;14871;52.702;5.230;2023-09-18T09:58:07;22.50;99.90
27413;DHT22;14871;52.702;5.230;2023-09-18T10:03:09;23.00;99.90
27413;DHT22;14871;52.702;5.230;2023-09-18T10:05:41;23.00;99.90
27413;DHT22;14871;52.702;5.230;2023-09-18T10:08:10;23.10;99.90
27413;DHT22;14871;52.702;5.230;2023-09-18T10:10:39;23.20;99.90
27413;DHT22;14871;52.702;5.230;2023-09-18T10:13:16;23.60;99.90
27413;DHT22;14871;52.702;5.230;2023-09-18T10:15:42;23.70;99.90
27413;DHT22;14871;52.702;5.230;2023-09-18T10:20:51;24.30;99.90
27413;DHT22;14871;52.702;5.230;2023-09-18T10:23:28;24.50;99.90
27413;DHT22;14871;52.702;5.230;2023-09-18T10:25:59;24.50;99.90
27413;DHT22;14871;52.702;5.230;2023-09-18T10:28:29;24.60;99.90
27413;DHT22;14871;52.702;5.230;2023-09-18T10:30:57;24.60;99.90
27413;DHT22;14871;52.702;5.230;2023-09-18T10:33:25;24.60;99.90
27413;DHT22;14871;52.702;5.230;2023-09-18T10:35:53;24.80;99.90
27413;DHT22;14871;52.702;5.230;2023-09-18T10:38:19;24.90;99.90
27413;DHT22;14871;52.702;5.230;2023-09-18T10:40:47;25.10;99.90
27413;DHT22;14871;52.702;5.230;2023-09-18T10:43:16;25.20;99.90
27413;DHT22;14871;52.702;5.230;2023-09-18T10:45:42;25.30;99.90
27413;DHT22;14871;52.702;5.230;2023-09-18T10:48:09;25.50;99.90
27413;DHT22;14871;52.702;5.230;2023-09-18T10:50:36;25.70;99.90
27413;DHT22;14871;52.702;5.230;2023-09-18T10:53:02;25.60;99.90
27413;DHT22;14871;52.702;5.230;2023-09-18T10:55:28;25.80;99.90
27413;DHT22;14871;52.702;5.230;2023-09-18T10:57:55;25.80;99.90
27413;DHT22;14871;52.702;5.230;2023-09-18T11:00:24;25.80;99.90
27413;DHT22;14871;52.702;5.230;2023-09-18T11:02:56;25.80;99.90
27413;DHT22;14871;52.702;5.230;2023-09-18T11:05:34;26.00;99.90
27413;DHT22;14871;52.702;5.230;2023-09-18T11:08:26;26.10;99.90
27413;DHT22;14871;52.702;5.230;2023-09-18T11:11:00;26.30;99.90
27413;DHT22;14871;52.702;5.230;2023-09-18T11:13:43;26.10;99.90
27413;DHT22;14871;52.702;5.230;2023-09-18T11:21:26;26.00;99.90
27413;DHT22;14871;52.702;5.230;2023-09-18T11:26:34;26.30;99.90
27413;DHT22;14871;52.702;5.230;2023-09-18T11:29:11;26.20;99.90
27413;DHT22;14871;52.702;5.230;2023-09-18T11:31:52;26.30;99.90
27413;DHT22;14871;52.702;5.230;2023-09-18T11:34:29;26.30;99.90
27413;DHT22;14871;52.702;5.230;2023-09-18T11:37:02;26.40;99.90
27413;DHT22;14871;52.702;5.230;2023-09-18T11:39:34;26.30;99.90
27413;DHT22;14871;52.702;5.230;2023-09-18T11:42:09;25.90;99.90
27413;DHT22;14871;52.702;5.230;2023-09-18T11:44:35;25.60;99.90
27413;DHT22;14871;52.702;5.230;2023-09-18T11:47:07;25.30;99.90
27413;DHT22;14871;52.702;5.230;2023-09-18T11:49:35;25.40;99.90
27413;DHT22;14871;52.702;5.230;2023-09-18T11:52:01;25.40;99.90
27413;DHT22;14871;52.702;5.230;2023-09-18T11:54:28;25.50;99.90
27413;DHT22;14871;52.702;5.230;2023-09-18T11:56:54;25.90;99.90
27413;DHT22;14871;52.702;5.230;2023-09-18T11:59:37;26.10;99.90
27413;DHT22;14871;52.702;5.230;2023-09-18T12:02:03;26.30;99.90
27413;DHT22;14871;52.702;5.230;2023-09-18T12:04:32;26.30;99.90
27413;DHT22;14871;52.702;5.230;2023-09-18T12:07:01;26.30;99.90
27413;DHT22;14871;52.702;5.230;2023-09-18T12:09:30;26.40;99.90
27413;DHT22;14871;52.702;5.230;2023-09-18T12:11:56;26.60;99.90
27413;DHT22;14871;52.702;5.230;2023-09-18T12:14:23;26.60;99.90
27413;DHT22;14871;52.702;5.230;2023-09-18T12:16:49;26.80;99.90
27413;DHT22;14871;52.702;5.230;2023-09-18T12:19:18;27.10;99.90
27413;DHT22;14871;52.702;5.230;2023-09-18T12:21:47;27.20;99.90
27413;DHT22;14871;52.702;5.230;2023-09-18T12:24:24;27.20;99.90
27413;DHT22;14871;52.702;5.230;2023-09-18T12:26:53;27.00;99.90
27413;DHT22;14871;52.702;5.230;2023-09-18T12:29:24;27.40;99.90
27413;DHT22;14871;52.702;5.230;2023-09-18T12:31:56;27.10;99.90
27413;DHT22;14871;52.702;5.230;2023-09-18T12:34:22;27.20;99.90
27413;DHT22;14871;52.702;5.230;2023-09-18T12:36:49;27.20;99.90
27413;DHT22;14871;52.702;5.230;2023-09-18T12:39:16;27.20;99.90
27413;DHT22;14871;52.702;5.230;2023-09-18T12:41:43;27.50;99.90
27413;DHT22;14871;52.702;5.230;2023-09-18T12:44:09;27.70;99.90
27413;DHT22;14871;52.702;5.230;2023-09-18T12:46:36;27.60;99.90
27413;DHT22;14871;52.702;5.230;2023-09-18T12:49:19;27.70;99.90
27413;DHT22;14871;52.702;5.230;2023-09-18T12:51:57;27.70;99.90
27413;DHT22;14871;52.702;5.230;2023-09-18T12:54:36;27.40;99.90
27413;DHT22;14871;52.702;5.230;2023-09-18T12:57:05;27.40;99.90
27413;DHT22;14871;52.702;5.230;2023-09-18T12:59:37;27.30;99.90
27413;DHT22;14871;52.702;5.230;2023-09-18T13:02:04;27.20;99.90
27413;DHT22;14871;52.702;5.230;2023-09-18T13:04:32;27.50;99.90
27413;DHT22;14871;52.702;5.230;2023-09-18T13:07:11;27.60;99.90
27413;DHT22;14871;52.702;5.230;2023-09-18T13:09:38;27.50;99.90
27413;DHT22;14871;52.702;5.230;2023-09-18T13:12:04;27.70;99.90
27413;DHT22;14871;52.702;5.230;2023-09-18T13:14:30;27.80;99.90
27413;DHT22;14871;52.702;5.230;2023-09-18T13:17:01;27.40;99.90
27413;DHT22;14871;52.702;5.230;2023-09-18T13:19:30;27.20;99.90
27413;DHT22;14871;52.702;5.230;2023-09-18T13:21:56;27.20;99.90
27413;DHT22;14871;52.702;5.230;2023-09-18T13:24:30;27.30;99.90
27413;DHT22;14871;52.702;5.230;2023-09-18T13:26:56;27.50;99.90
27413;DHT22;14871;52.702;5.230;2023-09-18T13:29:24;27.20;99.90
27413;DHT22;14871;52.702;5.230;2023-09-18T13:31:51;27.50;99.90
27413;DHT22;14871;52.702;5.230;2023-09-18T13:34:17;27.40;99.90
27413;DHT22;14871;52.702;5.230;2023-09-18T13:36:44;27.40;99.90
27413;DHT22;14871;52.702;5.230;2023-09-18T13:39:11;27.40;99.90
27413;DHT22;14871;52.702;5.230;2023-09-18T13:41:37;27.60;99.90
27413;DHT22;14871;52.702;5.230;2023-09-18T13:44:03;27.50;99.90
27413;DHT22;14871;52.702;5.230;2023-09-18T13:46:29;27.40;99.90
27413;DHT22;14871;52.702;5.230;2023-09-18T13:48:55;27.40;99.90
27413;DHT22;14871;52.702;5.230;2023-09-18T13:51:20;27.50;99.90
27413;DHT22;14871;52.702;5.230;2023-09-18T13:53:46;27.40;99.90
27413;DHT22;14871;52.702;5.230;2023-09-18T13:56:13;27.60;99.90
27413;DHT22;14871;52.702;5.230;2023-09-18T13:58:39;27.30;99.90
27413;DHT22;14871;52.702;5.230;2023-09-18T14:01:06;27.50;99.90
27413;DHT22;14871;52.702;5.230;2023-09-18T14:03:33;27.50;99.90
27413;DHT22;14871;52.702;5.230;2023-09-18T14:05:59;27.30;99.90
27413;DHT22;14871;52.702;5.230;2023-09-18T14:08:24;27.50;99.90
27413;DHT22;14871;52.702;5.230;2023-09-18T14:10:50;27.60;99.90
27413;DHT22;14871;52.702;5.230;2023-09-18T14:13:15;27.60;99.90
27413;DHT22;14871;52.702;5.230;2023-09-18T14:15:42;27.70;99.90
27413;DHT22;14871;52.702;5.230;2023-09-18T14:18:08;27.40;99.90
27413;DHT22;14871;52.702;5.230;2023-09-18T14:20:34;27.50;99.90
27413;DHT22;14871;52.702;5.230;2023-09-18T14:23:00;27.40;99.90
27413;DHT22;14871;52.702;5.230;2023-09-18T14:25:26;27.60;99.90
27413;DHT22;14871;52.702;5.230;2023-09-18T14:27:53;27.20;99.90
27413;DHT22;14871;52.702;5.230;2023-09-18T14:30:19;26.90;99.90
27413;DHT22;14871;52.702;5.230;2023-09-18T14:32:45;26.80;99.90
27413;DHT22;14871;52.702;5.230;2023-09-18T14:35:11;26.60;99.90
27413;DHT22;14871;52.702;5.230;2023-09-18T14:37:37;26.90;99.90
27413;DHT22;14871;52.702;5.230;2023-09-18T14:40:03;26.40;99.90
27413;DHT22;14871;52.702;5.230;2023-09-18T14:42:29;26.30;99.90
27413;DHT22;14871;52.702;5.230;2023-09-18T14:44:54;26.20;99.90
27413;DHT22;14871;52.702;5.230;2023-09-18T14:47:20;26.20;99.90
27413;DHT22;14871;52.702;5.230;2023-09-18T14:49:46;26.00;99.90
27413;DHT22;14871;52.702;5.230;2023-09-18T14:52:13;25.80;99.90
27413;DHT22;14871;52.702;5.230;2023-09-18T14:54:40;25.60;99.90
27413;DHT22;14871;52.702;5.230;2023-09-18T14:57:06;25.60;99.90
27413;DHT22;14871;52.702;5.230;2023-09-18T14:59:31;25.40;99.90
27413;DHT22;14871;52.702;5.230;2023-09-18T15:13:28;25.30;99.90
27413;DHT22;14871;52.702;5.230;2023-09-18T15:15:54;24.70;99.90
27413;DHT22;14871;52.702;5.230;2023-09-18T15:18:19;24.10;99.90
27413;DHT22;14871;52.702;5.230;2023-09-18T15:20:45;24.20;99.90
27413;DHT22;14871;52.702;5.230;2023-09-18T15:23:10;24.00;99.90
27413;DHT22;14871;52.702;5.230;2023-09-18T15:25:36;24.00;99.90
27413;DHT22;14871;52.702;5.230;2023-09-18T15:28:06;24.20;99.90
27413;DHT22;14871;52.702;5.230;2023-09-18T15:30:32;23.70;99.90
27413;DHT22;14871;52.702;5.230;2023-09-18T15:32:58;23.50;99.90
27413;DHT22;14871;52.702;5.230;2023-09-18T15:35:25;23.60;99.90
27413;DHT22;14871;52.702;5.230;2023-09-18T15:37:51;23.40;99.90
27413;DHT22;14871;52.702;5.230;2023-09-18T15:40:18;23.20;99.90
27413;DHT22;14871;52.702;5.230;2023-09-18T15:42:49;23.10;99.90
27413;DHT22;14871;52.702;5.230;2023-09-18T15:45:15;22.80;99.90
27413;DHT22;14871;52.702;5.230;2023-09-18T15:47:41;22.90;99.90
27413;DHT22;14871;52.702;5.230;2023-09-18T15:50:07;22.70;99.90
27413;DHT22;14871;52.702;5.230;2023-09-18T15:52:34;22.70;99.90
27413;DHT22;14871;52.702;5.230;2023-09-18T15:55:00;22.80;99.90
27413;DHT22;14871;52.702;5.230;2023-09-18T15:57:30;22.80;99.90